GCGM/GMZ METAR and TAF weather

Enter ICAO airport designator
Station Type Date Time Source
GCGM METAR 2019/04/25 01:30 UTC NOAA

GCGM 250130Z AUTO 29003KT 9999 NCD 16/12 Q1020 RMK R09/31003KT ARP/30003KT 280V340


Station Type Date Time Source
GCGM Decoded METAR 2019/04/25 01:30 UTC NOAA

Station name not available
Apr 24, 2019 - 09:30 PM EDT / 2019.04.25 0130 UTC
Wind: from the WNW (290 degrees) at 3 MPH (3 KT):0
Visibility: greater than 7 mile(s):0
Temperature: 60 F (16 C)
Dew Point: 53 F (12 C)
Relative Humidity: 77%
Pressure (altimeter): 30.12 in. Hg (1020 hPa)
ob: GCGM 250130Z AUTO 29003KT 9999 NCD 16/12 Q1020 RMK R09/31003KT ARP/30003KT 280V340
cycle: 1

Station Type Date Time Source
GCGM TAF 2019/04/24 21:00 UTC NOAA

TAF GCGM 242000Z 2421/2521 VRB05KT 9999 FEW030 TX22/2514Z TN16/2505Z
BECMG 2509/2511 23012KT

Example: see airport list